METAR : OOMS 150350Z 36008KT 340V040 8000 NSC 33/12 Q1009 NOSIG